sensor_id;sensor_type;location;lat;lon;timestamp;temperature;humidity
5274;DHT22;56254;50.956;7.010;2022-09-09T00:01:26;20.30;99.90
5274;DHT22;56254;50.956;7.010;2022-09-09T00:04:08;20.30;99.90
5274;DHT22;56254;50.956;7.010;2022-09-09T00:09:47;20.40;99.90
5274;DHT22;56254;50.956;7.010;2022-09-09T00:12:32;20.30;99.70
5274;DHT22;56254;50.956;7.010;2022-09-09T00:15:11;20.30;99.90
5274;DHT22;56254;50.956;7.010;2022-09-09T00:17:46;20.30;99.90
5274;DHT22;56254;50.956;7.010;2022-09-09T00:23:00;20.00;99.90
5274;DHT22;56254;50.956;7.010;2022-09-09T00:25:34;20.10;99.90
5274;DHT22;56254;50.956;7.010;2022-09-09T00:28:08;20.00;99.90
5274;DHT22;56254;50.956;7.010;2022-09-09T00:30:41;19.80;99.90
5274;DHT22;56254;50.956;7.010;2022-09-09T00:33:12;20.00;99.90
5274;DHT22;56254;50.956;7.010;2022-09-09T00:35:54;20.00;99.90
5274;DHT22;56254;50.956;7.010;2022-09-09T00:38:34;19.90;99.90
5274;DHT22;56254;50.956;7.010;2022-09-09T00:43:30;20.00;99.90
5274;DHT22;56254;50.956;7.010;2022-09-09T00:48:56;19.90;99.00
5274;DHT22;56254;50.956;7.010;2022-09-09T00:51:29;19.90;98.60
5274;DHT22;56254;50.956;7.010;2022-09-09T00:54:28;19.80;97.90
5274;DHT22;56254;50.956;7.010;2022-09-09T00:56:58;19.90;97.60
5274;DHT22;56254;50.956;7.010;2022-09-09T01:04:54;19.90;97.00
5274;DHT22;56254;50.956;7.010;2022-09-09T01:07:20;19.90;97.20
5274;DHT22;56254;50.956;7.010;2022-09-09T01:10:00;19.90;96.60
5274;DHT22;56254;50.956;7.010;2022-09-09T01:12:40;19.90;96.80
5274;DHT22;56254;50.956;7.010;2022-09-09T01:15:22;19.90;97.20
5274;DHT22;56254;50.956;7.010;2022-09-09T01:18:10;19.70;97.90
5274;DHT22;56254;50.956;7.010;2022-09-09T01:28:53;19.90;97.40
5274;DHT22;56254;50.956;7.010;2022-09-09T01:31:27;19.80;98.10
5274;DHT22;56254;50.956;7.010;2022-09-09T01:33:54;19.90;98.50
5274;DHT22;56254;50.956;7.010;2022-09-09T01:38:51;19.80;99.50
5274;DHT22;56254;50.956;7.010;2022-09-09T01:41:17;19.80;99.30
5274;DHT22;56254;50.956;7.010;2022-09-09T01:43:43;19.70;99.50
5274;DHT22;56254;50.956;7.010;2022-09-09T01:46:11;19.50;99.90
5274;DHT22;56254;50.956;7.010;2022-09-09T01:48:37;19.50;99.90
5274;DHT22;56254;50.956;7.010;2022-09-09T01:51:03;19.40;99.90
5274;DHT22;56254;50.956;7.010;2022-09-09T01:53:29;19.40;99.90
5274;DHT22;56254;50.956;7.010;2022-09-09T01:55:58;19.40;99.90
5274;DHT22;56254;50.956;7.010;2022-09-09T02:01:35;19.60;99.90
5274;DHT22;56254;50.956;7.010;2022-09-09T02:04:18;19.60;99.90
5274;DHT22;56254;50.956;7.010;2022-09-09T02:06:48;19.70;99.90
5274;DHT22;56254;50.956;7.010;2022-09-09T02:09:19;19.90;99.90
5274;DHT22;56254;50.956;7.010;2022-09-09T02:11:49;19.90;99.90
5274;DHT22;56254;50.956;7.010;2022-09-09T02:14:23;19.80;99.90
5274;DHT22;56254;50.956;7.010;2022-09-09T02:16:54;19.80;99.80
5274;DHT22;56254;50.956;7.010;2022-09-09T02:19:29;19.70;99.90
5274;DHT22;56254;50.956;7.010;2022-09-09T02:21:59;19.90;99.70
5274;DHT22;56254;50.956;7.010;2022-09-09T02:24:26;20.00;99.80
5274;DHT22;56254;50.956;7.010;2022-09-09T02:26:57;19.90;99.70
5274;DHT22;56254;50.956;7.010;2022-09-09T02:29:30;19.80;99.80
5274;DHT22;56254;50.956;7.010;2022-09-09T02:32:00;19.70;99.90
5274;DHT22;56254;50.956;7.010;2022-09-09T02:34:28;19.80;99.90
5274;DHT22;56254;50.956;7.010;2022-09-09T02:36:57;19.80;99.60
5274;DHT22;56254;50.956;7.010;2022-09-09T02:39:24;19.90;99.00
5274;DHT22;56254;50.956;7.010;2022-09-09T02:41:50;19.90;99.10
5274;DHT22;56254;50.956;7.010;2022-09-09T02:44:17;19.90;99.10
5274;DHT22;56254;50.956;7.010;2022-09-09T02:49:28;19.80;99.40
5274;DHT22;56254;50.956;7.010;2022-09-09T02:52:04;19.90;99.10
5274;DHT22;56254;50.956;7.010;2022-09-09T02:54:43;20.00;99.30
5274;DHT22;56254;50.956;7.010;2022-09-09T02:57:19;19.90;99.20
5274;DHT22;56254;50.956;7.010;2022-09-09T02:59:47;19.90;99.90
5274;DHT22;56254;50.956;7.010;2022-09-09T03:02:13;19.70;99.90
5274;DHT22;56254;50.956;7.010;2022-09-09T03:04:39;19.80;99.90
5274;DHT22;56254;50.956;7.010;2022-09-09T03:07:06;19.70;99.90
5274;DHT22;56254;50.956;7.010;2022-09-09T03:12:00;19.70;99.90
5274;DHT22;56254;50.956;7.010;2022-09-09T03:14:26;19.70;99.90
5274;DHT22;56254;50.956;7.010;2022-09-09T03:16:52;19.70;99.90
5274;DHT22;56254;50.956;7.010;2022-09-09T03:19:20;19.70;99.90
5274;DHT22;56254;50.956;7.010;2022-09-09T03:21:47;19.60;99.90
5274;DHT22;56254;50.956;7.010;2022-09-09T03:24:13;19.70;99.90
5274;DHT22;56254;50.956;7.010;2022-09-09T03:26:40;19.60;99.90
5274;DHT22;56254;50.956;7.010;2022-09-09T03:29:06;19.60;99.90
5274;DHT22;56254;50.956;7.010;2022-09-09T03:31:33;19.70;99.90
5274;DHT22;56254;50.956;7.010;2022-09-09T03:33:59;19.60;99.90
5274;DHT22;56254;50.956;7.010;2022-09-09T03:36:26;19.70;99.90
5274;DHT22;56254;50.956;7.010;2022-09-09T03:38:53;19.80;99.90
5274;DHT22;56254;50.956;7.010;2022-09-09T03:41:22;19.80;99.90
5274;DHT22;56254;50.956;7.010;2022-09-09T03:43:50;19.70;99.90
5274;DHT22;56254;50.956;7.010;2022-09-09T03:46:16;19.80;99.90
5274;DHT22;56254;50.956;7.010;2022-09-09T03:48:41;19.80;99.90
5274;DHT22;56254;50.956;7.010;2022-09-09T03:51:07;19.70;99.90
5274;DHT22;56254;50.956;7.010;2022-09-09T03:53:33;19.60;99.90
5274;DHT22;56254;50.956;7.010;2022-09-09T03:55:59;19.60;99.90
5274;DHT22;56254;50.956;7.010;2022-09-09T03:58:26;19.60;99.90
5274;DHT22;56254;50.956;7.010;2022-09-09T04:00:57;19.60;99.90
5274;DHT22;56254;50.956;7.010;2022-09-09T04:03:24;19.50;99.90
5274;DHT22;56254;50.956;7.010;2022-09-09T04:05:54;19.50;99.90
5274;DHT22;56254;50.956;7.010;2022-09-09T04:08:22;19.50;99.90
5274;DHT22;56254;50.956;7.010;2022-09-09T04:10:48;19.50;99.90
5274;DHT22;56254;50.956;7.010;2022-09-09T04:13:16;19.60;99.90
5274;DHT22;56254;50.956;7.010;2022-09-09T04:15:44;19.50;99.90
5274;DHT22;56254;50.956;7.010;2022-09-09T04:18:15;19.50;99.90
5274;DHT22;56254;50.956;7.010;2022-09-09T04:20:41;19.50;99.90
5274;DHT22;56254;50.956;7.010;2022-09-09T04:23:08;19.60;99.90
5274;DHT22;56254;50.956;7.010;2022-09-09T04:25:34;19.60;99.90
5274;DHT22;56254;50.956;7.010;2022-09-09T04:28:00;19.50;99.90
5274;DHT22;56254;50.956;7.010;2022-09-09T04:30:25;19.50;99.90
5274;DHT22;56254;50.956;7.010;2022-09-09T04:32:52;19.60;99.90
5274;DHT22;56254;50.956;7.010;2022-09-09T04:35:19;19.60;99.90
5274;DHT22;56254;50.956;7.010;2022-09-09T04:37:45;19.60;99.90
5274;DHT22;56254;50.956;7.010;2022-09-09T04:40:11;19.70;99.90
5274;DHT22;56254;50.956;7.010;2022-09-09T04:42:38;19.70;99.90
5274;DHT22;56254;50.956;7.010;2022-09-09T04:45:05;19.80;99.90
5274;DHT22;56254;50.956;7.010;2022-09-09T04:47:32;19.70;99.90
5274;DHT22;56254;50.956;7.010;2022-09-09T04:49:58;19.80;99.90
5274;DHT22;56254;50.956;7.010;2022-09-09T04:52:24;19.70;99.90
5274;DHT22;56254;50.956;7.010;2022-09-09T04:54:49;19.60;99.90
5274;DHT22;56254;50.956;7.010;2022-09-09T04:57:15;19.70;99.90
5274;DHT22;56254;50.956;7.010;2022-09-09T04:59:41;19.60;99.90
5274;DHT22;56254;50.956;7.010;2022-09-09T05:02:07;19.60;99.90
5274;DHT22;56254;50.956;7.010;2022-09-09T05:04:32;19.60;99.90
5274;DHT22;56254;50.956;7.010;2022-09-09T05:06:58;19.60;99.90
5274;DHT22;56254;50.956;7.010;2022-09-09T05:09:24;19.70;99.90
5274;DHT22;56254;50.956;7.010;2022-09-09T05:11:53;19.70;99.90
5274;DHT22;56254;50.956;7.010;2022-09-09T05:14:19;19.60;99.90
5274;DHT22;56254;50.956;7.010;2022-09-09T05:16:45;19.60;99.90
5274;DHT22;56254;50.956;7.010;2022-09-09T05:19:12;19.50;99.90
5274;DHT22;56254;50.956;7.010;2022-09-09T05:21:39;19.40;99.90
5274;DHT22;56254;50.956;7.010;2022-09-09T05:24:04;19.50;99.90
5274;DHT22;56254;50.956;7.010;2022-09-09T05:26:30;19.50;99.90
5274;DHT22;56254;50.956;7.010;2022-09-09T05:28:56;19.50;99.90
5274;DHT22;56254;50.956;7.010;2022-09-09T05:31:24;18.90;99.90
5274;DHT22;56254;50.956;7.010;2022-09-09T05:33:53;18.40;99.90
5274;DHT22;56254;50.956;7.010;2022-09-09T05:36:20;18.30;99.90
5274;DHT22;56254;50.956;7.010;2022-09-09T05:38:50;18.30;99.90
5274;DHT22;56254;50.956;7.010;2022-09-09T05:41:19;18.40;99.90
5274;DHT22;56254;50.956;7.010;2022-09-09T05:43:49;18.50;99.90
5274;DHT22;56254;50.956;7.010;2022-09-09T05:46:24;18.60;99.90
5274;DHT22;56254;50.956;7.010;2022-09-09T05:48:56;18.60;99.90
5274;DHT22;56254;50.956;7.010;2022-09-09T05:51:25;18.60;99.90
5274;DHT22;56254;50.956;7.010;2022-09-09T05:53:55;18.70;99.90
5274;DHT22;56254;50.956;7.010;2022-09-09T05:56:25;18.80;99.90
5274;DHT22;56254;50.956;7.010;2022-09-09T05:58:52;18.70;99.90
5274;DHT22;56254;50.956;7.010;2022-09-09T06:01:30;18.90;99.90
5274;DHT22;56254;50.956;7.010;2022-09-09T06:03:56;18.90;99.90
5274;DHT22;56254;50.956;7.010;2022-09-09T06:06:25;19.00;99.90
5274;DHT22;56254;50.956;7.010;2022-09-09T06:08:53;18.90;99.90
5274;DHT22;56254;50.956;7.010;2022-09-09T06:11:23;19.20;99.90
5274;DHT22;56254;50.956;7.010;2022-09-09T06:13:50;19.20;99.90
5274;DHT22;56254;50.956;7.010;2022-09-09T06:16:29;19.40;99.90
5274;DHT22;56254;50.956;7.010;2022-09-09T06:19:01;19.50;99.90
5274;DHT22;56254;50.956;7.010;2022-09-09T06:21:37;19.50;99.90
5274;DHT22;56254;50.956;7.010;2022-09-09T06:24:03;19.40;99.90
5274;DHT22;56254;50.956;7.010;2022-09-09T06:26:38;19.50;99.90
5274;DHT22;56254;50.956;7.010;2022-09-09T06:29:06;19.50;99.90
5274;DHT22;56254;50.956;7.010;2022-09-09T06:31:39;19.50;99.90
5274;DHT22;56254;50.956;7.010;2022-09-09T06:34:06;19.50;99.90
5274;DHT22;56254;50.956;7.010;2022-09-09T06:36:37;19.50;99.90
5274;DHT22;56254;50.956;7.010;2022-09-09T06:39:04;19.50;99.90
5274;DHT22;56254;50.956;7.010;2022-09-09T06:41:32;19.40;99.90
5274;DHT22;56254;50.956;7.010;2022-09-09T06:44:01;19.30;99.90
5274;DHT22;56254;50.956;7.010;2022-09-09T06:46:33;19.50;99.90
5274;DHT22;56254;50.956;7.010;2022-09-09T06:49:01;19.40;99.90
5274;DHT22;56254;50.956;7.010;2022-09-09T06:51:30;19.40;99.90
5274;DHT22;56254;50.956;7.010;2022-09-09T06:53:59;19.30;99.90
5274;DHT22;56254;50.956;7.010;2022-09-09T06:56:35;19.30;99.90
5274;DHT22;56254;50.956;7.010;2022-09-09T06:59:05;19.30;99.90
5274;DHT22;56254;50.956;7.010;2022-09-09T07:01:33;19.30;99.90
5274;DHT22;56254;50.956;7.010;2022-09-09T07:03:59;19.40;99.90
5274;DHT22;56254;50.956;7.010;2022-09-09T07:06:33;19.50;99.90
5274;DHT22;56254;50.956;7.010;2022-09-09T07:09:06;19.50;99.90
5274;DHT22;56254;50.956;7.010;2022-09-09T07:11:34;19.80;99.90
5274;DHT22;56254;50.956;7.010;2022-09-09T07:14:02;20.00;99.90
5274;DHT22;56254;50.956;7.010;2022-09-09T07:16:28;20.10;99.90
5274;DHT22;56254;50.956;7.010;2022-09-09T07:18:55;20.50;99.90
5274;DHT22;56254;50.956;7.010;2022-09-09T07:21:25;20.60;99.90
5274;DHT22;56254;50.956;7.010;2022-09-09T07:23:52;20.70;99.90
5274;DHT22;56254;50.956;7.010;2022-09-09T07:26:20;20.70;99.90
5274;DHT22;56254;50.956;7.010;2022-09-09T07:28:47;21.00;99.90
5274;DHT22;56254;50.956;7.010;2022-09-09T07:31:18;21.20;98.70
5274;DHT22;56254;50.956;7.010;2022-09-09T07:33:45;21.20;99.30
5274;DHT22;56254;50.956;7.010;2022-09-09T07:36:18;21.10;98.20
5274;DHT22;56254;50.956;7.010;2022-09-09T07:38:49;21.00;97.70
5274;DHT22;56254;50.956;7.010;2022-09-09T07:41:35;21.10;97.10
5274;DHT22;56254;50.956;7.010;2022-09-09T07:44:10;20.90;94.90
5274;DHT22;56254;50.956;7.010;2022-09-09T07:46:36;21.10;95.20
5274;DHT22;56254;50.956;7.010;2022-09-09T07:49:04;21.20;96.50
5274;DHT22;56254;50.956;7.010;2022-09-09T07:51:38;21.30;94.20
5274;DHT22;56254;50.956;7.010;2022-09-09T07:54:10;21.30;92.50
5274;DHT22;56254;50.956;7.010;2022-09-09T07:56:38;21.20;92.70
5274;DHT22;56254;50.956;7.010;2022-09-09T07:59:04;21.20;92.70
5274;DHT22;56254;50.956;7.010;2022-09-09T08:01:43;21.70;92.10
5274;DHT22;56254;50.956;7.010;2022-09-09T08:04:14;21.80;90.40
5274;DHT22;56254;50.956;7.010;2022-09-09T08:06:47;22.00;89.00
5274;DHT22;56254;50.956;7.010;2022-09-09T08:09:13;21.90;86.10
5274;DHT22;56254;50.956;7.010;2022-09-09T08:11:40;21.80;87.60
5274;DHT22;56254;50.956;7.010;2022-09-09T08:14:10;21.80;86.70
5274;DHT22;56254;50.956;7.010;2022-09-09T08:16:48;21.80;85.40
5274;DHT22;56254;50.956;7.010;2022-09-09T08:19:14;21.80;86.90
5274;DHT22;56254;50.956;7.010;2022-09-09T08:21:43;21.60;85.20
5274;DHT22;56254;50.956;7.010;2022-09-09T08:24:10;21.40;86.60
5274;DHT22;56254;50.956;7.010;2022-09-09T08:26:41;21.30;86.30
5274;DHT22;56254;50.956;7.010;2022-09-09T08:29:09;21.40;86.70
5274;DHT22;56254;50.956;7.010;2022-09-09T08:31:38;21.40;85.70
5274;DHT22;56254;50.956;7.010;2022-09-09T08:34:05;21.60;85.50
5274;DHT22;56254;50.956;7.010;2022-09-09T08:36:34;21.50;83.70
5274;DHT22;56254;50.956;7.010;2022-09-09T08:39:00;21.50;84.80
5274;DHT22;56254;50.956;7.010;2022-09-09T08:41:31;21.80;84.20
5274;DHT22;56254;50.956;7.010;2022-09-09T08:47:01;22.70;81.80
5274;DHT22;56254;50.956;7.010;2022-09-09T08:50:13;22.80;80.20
5274;DHT22;56254;50.956;7.010;2022-09-09T08:53:04;22.80;80.50
5274;DHT22;56254;50.956;7.010;2022-09-09T08:58:34;22.70;78.10
5274;DHT22;56254;50.956;7.010;2022-09-09T09:03:46;22.40;79.00
5274;DHT22;56254;50.956;7.010;2022-09-09T09:11:47;22.30;78.60
5274;DHT22;56254;50.956;7.010;2022-09-09T09:14:22;22.50;77.20
5274;DHT22;56254;50.956;7.010;2022-09-09T09:17:12;22.90;77.10
5274;DHT22;56254;50.956;7.010;2022-09-09T09:19:41;23.10;76.20
5274;DHT22;56254;50.956;7.010;2022-09-09T09:31:03;22.60;76.60
5274;DHT22;56254;50.956;7.010;2022-09-09T09:33:42;22.20;77.40
5274;DHT22;56254;50.956;7.010;2022-09-09T09:36:13;22.30;78.00
5274;DHT22;56254;50.956;7.010;2022-09-09T09:38:58;22.20;77.90
5274;DHT22;56254;50.956;7.010;2022-09-09T09:41:36;22.30;77.70
5274;DHT22;56254;50.956;7.010;2022-09-09T09:44:05;22.20;78.60
5274;DHT22;56254;50.956;7.010;2022-09-09T09:46:31;22.20;78.70
5274;DHT22;56254;50.956;7.010;2022-09-09T09:49:10;22.10;77.80
5274;DHT22;56254;50.956;7.010;2022-09-09T09:51:35;22.20;77.30
5274;DHT22;56254;50.956;7.010;2022-09-09T09:54:18;22.40;77.70
5274;DHT22;56254;50.956;7.010;2022-09-09T09:56:48;22.20;77.50
5274;DHT22;56254;50.956;7.010;2022-09-09T09:59:44;22.10;78.20
5274;DHT22;56254;50.956;7.010;2022-09-09T10:02:37;21.90;78.20
5274;DHT22;56254;50.956;7.010;2022-09-09T10:05:09;22.10;78.90
5274;DHT22;56254;50.956;7.010;2022-09-09T10:07:39;22.10;78.90
5274;DHT22;56254;50.956;7.010;2022-09-09T10:10:10;22.40;78.40
5274;DHT22;56254;50.956;7.010;2022-09-09T10:15:29;23.10;76.00
5274;DHT22;56254;50.956;7.010;2022-09-09T10:24:42;22.90;76.00
5274;DHT22;56254;50.956;7.010;2022-09-09T10:26:58;22.90;75.80
5274;DHT22;56254;50.956;7.010;2022-09-09T10:30:09;23.00;76.30
5274;DHT22;56254;50.956;7.010;2022-09-09T10:32:57;22.70;75.40
5274;DHT22;56254;50.956;7.010;2022-09-09T10:38:13;22.30;75.90
5274;DHT22;56254;50.956;7.010;2022-09-09T10:46:32;22.60;76.50
5274;DHT22;56254;50.956;7.010;2022-09-09T10:49:36;22.70;75.80
5274;DHT22;56254;50.956;7.010;2022-09-09T10:55:17;22.90;75.40
5274;DHT22;56254;50.956;7.010;2022-09-09T10:57:45;22.90;75.30
5274;DHT22;56254;50.956;7.010;2022-09-09T11:00:24;23.00;74.60
5274;DHT22;56254;50.956;7.010;2022-09-09T11:02:58;22.90;73.80
5274;DHT22;56254;50.956;7.010;2022-09-09T11:05:41;22.90;74.20
5274;DHT22;56254;50.956;7.010;2022-09-09T11:08:19;23.10;74.30
5274;DHT22;56254;50.956;7.010;2022-09-09T11:11:08;23.00;73.50
5274;DHT22;56254;50.956;7.010;2022-09-09T11:13:53;23.00;74.00
5274;DHT22;56254;50.956;7.010;2022-09-09T11:21:45;23.10;74.70
5274;DHT22;56254;50.956;7.010;2022-09-09T11:24:22;23.20;74.30
5274;DHT22;56254;50.956;7.010;2022-09-09T11:27:09;23.50;73.70
5274;DHT22;56254;50.956;7.010;2022-09-09T11:41:06;23.60;72.80
5274;DHT22;56254;50.956;7.010;2022-09-09T11:43:43;23.70;69.90
5274;DHT22;56254;50.956;7.010;2022-09-09T11:46:10;23.50;72.20
5274;DHT22;56254;50.956;7.010;2022-09-09T11:48:42;23.40;72.10
5274;DHT22;56254;50.956;7.010;2022-09-09T11:51:31;23.50;71.90
5274;DHT22;56254;50.956;7.010;2022-09-09T11:56:49;23.50;71.70
5274;DHT22;56254;50.956;7.010;2022-09-09T12:05:09;23.80;68.40
5274;DHT22;56254;50.956;7.010;2022-09-09T12:07:41;23.70;67.50
5274;DHT22;56254;50.956;7.010;2022-09-09T12:10:31;23.50;70.50
5274;DHT22;56254;50.956;7.010;2022-09-09T12:13:19;23.50;70.90
5274;DHT22;56254;50.956;7.010;2022-09-09T12:15:53;23.50;70.80
5274;DHT22;56254;50.956;7.010;2022-09-09T12:18:36;23.50;71.00
5274;DHT22;56254;50.956;7.010;2022-09-09T12:21:23;23.40;71.40
5274;DHT22;56254;50.956;7.010;2022-09-09T12:23:57;23.30;71.20
5274;DHT22;56254;50.956;7.010;2022-09-09T12:40:03;23.70;67.00
5274;DHT22;56254;50.956;7.010;2022-09-09T12:42:30;23.60;67.00
5274;DHT22;56254;50.956;7.010;2022-09-09T12:45:01;23.40;69.30
5274;DHT22;56254;50.956;7.010;2022-09-09T12:50:01;23.40;69.80
5274;DHT22;56254;50.956;7.010;2022-09-09T12:52:47;23.20;69.90
5274;DHT22;56254;50.956;7.010;2022-09-09T12:55:34;23.10;70.60
5274;DHT22;56254;50.956;7.010;2022-09-09T12:58:01;23.00;71.20
5274;DHT22;56254;50.956;7.010;2022-09-09T13:00:31;23.00;72.20
5274;DHT22;56254;50.956;7.010;2022-09-09T13:03:00;23.30;71.30
5274;DHT22;56254;50.956;7.010;2022-09-09T13:05:36;23.50;71.10
5274;DHT22;56254;50.956;7.010;2022-09-09T13:08:07;23.80;68.50
5274;DHT22;56254;50.956;7.010;2022-09-09T13:10:39;24.30;67.40
5274;DHT22;56254;50.956;7.010;2022-09-09T13:13:18;24.80;66.40
5274;DHT22;56254;50.956;7.010;2022-09-09T13:15:53;24.90;65.90
5274;DHT22;56254;50.956;7.010;2022-09-09T13:18:32;24.40;66.30
5274;DHT22;56254;50.956;7.010;2022-09-09T13:20:59;24.00;67.60
5274;DHT22;56254;50.956;7.010;2022-09-09T13:23:34;24.00;67.60
5274;DHT22;56254;50.956;7.010;2022-09-09T13:26:19;23.80;68.50
5274;DHT22;56254;50.956;7.010;2022-09-09T13:28:49;23.70;68.60
5274;DHT22;56254;50.956;7.010;2022-09-09T13:31:35;23.80;68.70
5274;DHT22;56254;50.956;7.010;2022-09-09T13:34:13;23.90;68.70
5274;DHT22;56254;50.956;7.010;2022-09-09T13:36:40;24.00;68.30
5274;DHT22;56254;50.956;7.010;2022-09-09T13:39:16;24.20;67.40
5274;DHT22;56254;50.956;7.010;2022-09-09T13:41:46;24.10;67.90
5274;DHT22;56254;50.956;7.010;2022-09-09T13:44:34;24.20;68.00
5274;DHT22;56254;50.956;7.010;2022-09-09T13:47:05;24.10;68.80
5274;DHT22;56254;50.956;7.010;2022-09-09T13:49:31;24.10;68.80
5274;DHT22;56254;50.956;7.010;2022-09-09T13:52:25;24.00;69.30
5274;DHT22;56254;50.956;7.010;2022-09-09T13:54:52;24.00;69.10
5274;DHT22;56254;50.956;7.010;2022-09-09T13:57:23;24.40;68.90
5274;DHT22;56254;50.956;7.010;2022-09-09T13:59:53;24.80;67.20
5274;DHT22;56254;50.956;7.010;2022-09-09T14:02:20;25.20;66.60
5274;DHT22;56254;50.956;7.010;2022-09-09T14:04:48;25.10;66.50
5274;DHT22;56254;50.956;7.010;2022-09-09T14:07:18;25.10;66.40
5274;DHT22;56254;50.956;7.010;2022-09-09T14:09:46;24.80;66.80
5274;DHT22;56254;50.956;7.010;2022-09-09T14:12:15;24.60;67.80
5274;DHT22;56254;50.956;7.010;2022-09-09T14:14:42;24.20;68.60
5274;DHT22;56254;50.956;7.010;2022-09-09T14:17:09;24.00;69.10
5274;DHT22;56254;50.956;7.010;2022-09-09T14:19:35;24.00;69.30
5274;DHT22;56254;50.956;7.010;2022-09-09T14:22:02;23.90;69.90
5274;DHT22;56254;50.956;7.010;2022-09-09T14:24:30;23.60;72.50
5274;DHT22;56254;50.956;7.010;2022-09-09T14:26:56;23.60;71.10
5274;DHT22;56254;50.956;7.010;2022-09-09T14:29:22;23.50;73.70
5274;DHT22;56254;50.956;7.010;2022-09-09T14:31:50;23.40;74.50
5274;DHT22;56254;50.956;7.010;2022-09-09T14:34:16;23.30;74.30
5274;DHT22;56254;50.956;7.010;2022-09-09T14:36:42;23.30;74.80
5274;DHT22;56254;50.956;7.010;2022-09-09T14:39:10;23.30;75.10
5274;DHT22;56254;50.956;7.010;2022-09-09T14:41:35;23.20;75.40
5274;DHT22;56254;50.956;7.010;2022-09-09T14:44:01;23.00;75.70
5274;DHT22;56254;50.956;7.010;2022-09-09T14:46:27;23.00;77.30
5274;DHT22;56254;50.956;7.010;2022-09-09T14:48:53;22.50;85.40
5274;DHT22;56254;50.956;7.010;2022-09-09T14:51:21;21.70;96.70
5274;DHT22;56254;50.956;7.010;2022-09-09T14:53:48;21.20;99.90
5274;DHT22;56254;50.956;7.010;2022-09-09T14:56:18;20.90;97.40
5274;DHT22;56254;50.956;7.010;2022-09-09T14:58:45;20.80;99.90
5274;DHT22;56254;50.956;7.010;2022-09-09T15:01:16;20.90;99.90
5274;DHT22;56254;50.956;7.010;2022-09-09T15:03:48;20.70;98.60
5274;DHT22;56254;50.956;7.010;2022-09-09T15:06:14;21.00;99.90
5274;DHT22;56254;50.956;7.010;2022-09-09T15:08:42;21.20;99.20
5274;DHT22;56254;50.956;7.010;2022-09-09T15:11:12;21.50;99.90
5274;DHT22;56254;50.956;7.010;2022-09-09T15:13:40;21.50;99.90
5274;DHT22;56254;50.956;7.010;2022-09-09T15:16:11;21.70;99.90
5274;DHT22;56254;50.956;7.010;2022-09-09T15:18:37;21.80;99.90
5274;DHT22;56254;50.956;7.010;2022-09-09T15:21:15;21.90;99.90
5274;DHT22;56254;50.956;7.010;2022-09-09T15:23:47;22.20;99.90
5274;DHT22;56254;50.956;7.010;2022-09-09T15:26:16;22.30;99.40
5274;DHT22;56254;50.956;7.010;2022-09-09T15:28:44;22.30;98.90
5274;DHT22;56254;50.956;7.010;2022-09-09T15:31:16;22.30;98.30
5274;DHT22;56254;50.956;7.010;2022-09-09T15:33:49;22.10;99.50
5274;DHT22;56254;50.956;7.010;2022-09-09T15:36:21;22.20;99.80
5274;DHT22;56254;50.956;7.010;2022-09-09T15:38:49;22.20;99.40
5274;DHT22;56254;50.956;7.010;2022-09-09T15:41:15;22.30;99.90
5274;DHT22;56254;50.956;7.010;2022-09-09T15:43:55;22.40;99.90
5274;DHT22;56254;50.956;7.010;2022-09-09T15:48:58;22.20;98.60
5274;DHT22;56254;50.956;7.010;2022-09-09T15:51:27;22.10;97.30
5274;DHT22;56254;50.956;7.010;2022-09-09T15:54:01;22.00;99.90
5274;DHT22;56254;50.956;7.010;2022-09-09T15:56:29;21.90;99.90
5274;DHT22;56254;50.956;7.010;2022-09-09T15:59:02;22.00;99.90
5274;DHT22;56254;50.956;7.010;2022-09-09T16:01:31;21.80;99.90
5274;DHT22;56254;50.956;7.010;2022-09-09T16:03:58;21.60;99.90
5274;DHT22;56254;50.956;7.010;2022-09-09T16:06:30;21.40;99.90
5274;DHT22;56254;50.956;7.010;2022-09-09T16:08:58;21.10;99.90
5274;DHT22;56254;50.956;7.010;2022-09-09T16:11:30;21.10;99.90
5274;DHT22;56254;50.956;7.010;2022-09-09T16:13:59;21.30;99.90
5274;DHT22;56254;50.956;7.010;2022-09-09T16:16:33;21.30;99.90
5274;DHT22;56254;50.956;7.010;2022-09-09T16:19:04;21.20;99.90
5274;DHT22;56254;50.956;7.010;2022-09-09T16:21:39;21.10;99.60
5274;DHT22;56254;50.956;7.010;2022-09-09T16:24:06;20.90;99.30
5274;DHT22;56254;50.956;7.010;2022-09-09T16:26:42;21.00;99.90
5274;DHT22;56254;50.956;7.010;2022-09-09T16:29:13;21.00;99.90
5274;DHT22;56254;50.956;7.010;2022-09-09T16:31:40;20.90;99.90
5274;DHT22;56254;50.956;7.010;2022-09-09T16:34:07;20.90;99.90
5274;DHT22;56254;50.956;7.010;2022-09-09T16:36:35;21.00;99.90
5274;DHT22;56254;50.956;7.010;2022-09-09T16:39:04;21.00;99.90
5274;DHT22;56254;50.956;7.010;2022-09-09T16:41:39;21.10;99.90
5274;DHT22;56254;50.956;7.010;2022-09-09T16:44:07;21.10;99.90
5274;DHT22;56254;50.956;7.010;2022-09-09T16:46:36;21.10;99.90
5274;DHT22;56254;50.956;7.010;2022-09-09T16:49:05;21.00;99.90
5274;DHT22;56254;50.956;7.010;2022-09-09T16:51:41;21.10;99.90
5274;DHT22;56254;50.956;7.010;2022-09-09T16:54:08;21.20;99.90
5274;DHT22;56254;50.956;7.010;2022-09-09T16:56:38;21.20;99.90
5274;DHT22;56254;50.956;7.010;2022-09-09T16:59:08;21.10;99.90
5274;DHT22;56254;50.956;7.010;2022-09-09T17:01:36;21.10;99.90
5274;DHT22;56254;50.956;7.010;2022-09-09T17:04:05;20.90;99.90
5274;DHT22;56254;50.956;7.010;2022-09-09T17:06:34;20.80;99.90
5274;DHT22;56254;50.956;7.010;2022-09-09T17:09:02;20.90;99.90
5274;DHT22;56254;50.956;7.010;2022-09-09T17:11:29;20.90;99.90
5274;DHT22;56254;50.956;7.010;2022-09-09T17:14:00;20.90;99.90
5274;DHT22;56254;50.956;7.010;2022-09-09T17:16:28;20.80;99.90
5274;DHT22;56254;50.956;7.010;2022-09-09T17:18:54;20.70;99.90
5274;DHT22;56254;50.956;7.010;2022-09-09T17:21:22;20.70;99.90
5274;DHT22;56254;50.956;7.010;2022-09-09T17:23:51;20.40;99.90
5274;DHT22;56254;50.956;7.010;2022-09-09T17:26:19;20.40;99.90
5274;DHT22;56254;50.956;7.010;2022-09-09T17:28:47;20.40;99.90
5274;DHT22;56254;50.956;7.010;2022-09-09T17:31:16;20.40;99.90
5274;DHT22;56254;50.956;7.010;2022-09-09T17:33:45;20.20;99.90
5274;DHT22;56254;50.956;7.010;2022-09-09T17:36:13;20.30;99.90
5274;DHT22;56254;50.956;7.010;2022-09-09T17:38:41;20.30;99.90
5274;DHT22;56254;50.956;7.010;2022-09-09T17:41:12;20.30;99.90
5274;DHT22;56254;50.956;7.010;2022-09-09T17:43:38;20.20;99.90
5274;DHT22;56254;50.956;7.010;2022-09-09T17:46:28;20.20;99.90
5274;DHT22;56254;50.956;7.010;2022-09-09T17:49:00;20.10;99.90
5274;DHT22;56254;50.956;7.010;2022-09-09T17:51:29;20.10;99.90
5274;DHT22;56254;50.956;7.010;2022-09-09T17:53:58;20.00;99.90
5274;DHT22;56254;50.956;7.010;2022-09-09T17:56:25;19.90;99.90
5274;DHT22;56254;50.956;7.010;2022-09-09T17:58:52;20.00;99.90
5274;DHT22;56254;50.956;7.010;2022-09-09T18:01:21;20.10;99.90
5274;DHT22;56254;50.956;7.010;2022-09-09T18:03:49;20.20;99.90
5274;DHT22;56254;50.956;7.010;2022-09-09T18:06:21;20.20;99.90
5274;DHT22;56254;50.956;7.010;2022-09-09T18:08:52;20.10;99.90
5274;DHT22;56254;50.956;7.010;2022-09-09T18:11:20;20.20;99.90
5274;DHT22;56254;50.956;7.010;2022-09-09T18:13:51;20.20;99.90